Time;durP1;ratioP1;P1;durP2;ratioP2;P2;SDS_P1;SDS_P2;PMS_P1;PMS_P2;Temp;Humidity;BMP_temperature;BMP_pressure;BME280_temperature;BME280_humidity;BME280_pressure;Samples;Min_cycle;Max_cycle;Signal;HPM_P1;HPM_P2
2021/04/23 00:01:16;;;;;;;26.48;18.37;;;;;;;;;;1741974;81;21293;-75
2021/04/23 00:03:49;;;;;;;24.02;17.07;;;;;;;;;;1733961;81;21691;-76
2021/04/23 00:06:24;;;;;;;29.42;19.90;;;;;;;;;;1736686;81;21216;-76
2021/04/23 00:09:03;;;;;;;28.98;17.52;;;;;;;;;;1747661;80;21238;-75
2021/04/23 00:11:38;;;;;;;28.80;19.25;;;;;;;;;;1749273;81;21778;-76
2021/04/23 00:14:11;;;;;;;26.90;17.35;;;;;;;;;;1754676;81;21337;-77
2021/04/23 00:16:42;;;;;;;28.47;18.80;;;;;;;;;;1748000;81;21213;-77
2021/04/23 00:19:19;;;;;;;25.62;17.52;;;;;;;;;;1735037;82;21241;-77
2021/04/23 00:21:50;;;;;;;26.85;17.92;;;;;;;;;;1733100;81;21751;-76
2021/04/23 00:24:21;;;;;;;36.65;21.90;;;;;;;;;;1742268;81;21733;-76
2021/04/23 00:26:52;;;;;;;41.60;24.82;;;;;;;;;;1741276;81;21351;-76
2021/04/23 00:29:22;;;;;;;;;;;;;;;;;;1752617;81;21333;-76
2021/04/23 00:34:44;;;;;;;44.67;25.92;;;;;;;;;;1719303;83;21329;-76
2021/04/23 00:37:15;;;;;;;42.83;27.00;;;;;;;;;;1719292;83;21336;-76
2021/04/23 00:39:45;;;;;;;;;;;;;;;;;;1721650;83;21661;-76
2021/04/23 00:42:16;;;;;;;36.30;22.70;;;;;;;;;;1740037;81;20542;-76
2021/04/23 00:44:47;;;;;;;31.73;21.42;;;;;;;;;;1762553;81;21219;-76
2021/04/23 00:47:18;;;;;;;32.95;18.37;;;;;;;;;;1759284;81;21345;-77
2021/04/23 00:49:50;;;;;;;28.70;19.35;;;;;;;;;;1735656;81;22296;-76
2021/04/23 00:52:22;;;;;;;30.68;19.50;;;;;;;;;;1730996;81;21529;-77
2021/04/23 00:54:53;;;;;;;30.68;19.55;;;;;;;;;;1732769;81;21216;-77
2021/04/23 00:57:25;;;;;;;29.90;19.27;;;;;;;;;;1732772;81;21180;-78
2021/04/23 00:59:56;;;;;;;31.37;19.32;;;;;;;;;;1732392;82;21188;-76
2021/04/23 01:02:26;;;;;;;;;;;;;;;;;;1742452;81;21226;-76
2021/04/23 01:04:57;;;;;;;22.90;15.70;;;;;;;;;;1704291;83;20259;-75
2021/04/23 01:07:28;;;;;;;23.18;15.68;;;;;;;;;;1728232;83;21165;-76
2021/04/23 01:09:59;;;;;;;25.90;15.60;;;;;;;;;;1746970;82;21169;-76
2021/04/23 01:12:31;;;;;;;27.90;16.48;;;;;;;;;;1728404;82;21726;-76
2021/04/23 01:15:02;;;;;;;24.55;15.85;;;;;;;;;;1746224;82;21341;-76
2021/04/23 01:17:33;;;;;;;29.57;17.95;;;;;;;;;;1719044;82;21289;-77
2021/04/23 01:20:06;;;;;;;29.40;16.67;;;;;;;;;;1714891;82;21392;-76
2021/04/23 01:22:38;;;;;;;25.15;16.02;;;;;;;;;;1749734;81;21878;-76
2021/04/23 01:25:09;;;;;;;;;;;;;;;;;;1777630;81;21487;-77
2021/04/23 01:27:40;;;;;;;18.55;12.90;;;;;;;;;;1754543;81;20315;-76
2021/04/23 01:30:13;;;;;;;17.05;11.85;;;;;;;;;;1726884;83;21934;-77
2021/04/23 01:32:45;;;;;;;17.57;11.60;;;;;;;;;;1745836;81;21154;-77
2021/04/23 01:35:22;;;;;;;17.23;12.55;;;;;;;;;;1765661;81;21174;-76
2021/04/23 01:37:53;;;;;;;17.57;11.85;;;;;;;;;;1728611;82;21193;-77
2021/04/23 01:40:24;;;;;;;16.77;11.65;;;;;;;;;;1739300;82;21278;-76
2021/04/23 01:42:54;;;;;;;;;;;;;;;;;;1740050;82;21412;-76
2021/04/23 01:45:25;;;;;;;17.10;11.03;;;;;;;;;;1745654;82;20313;-76
2021/04/23 01:47:56;;;;;;;16.62;11.93;;;;;;;;;;1729658;82;21230;-76
2021/04/23 01:50:28;;;;;;;14.45;10.25;;;;;;;;;;1724612;82;21182;-76
2021/04/23 01:52:59;;;;;;;19.65;12.47;;;;;;;;;;1722918;82;21223;-76
2021/04/23 01:55:32;;;;;;;15.93;11.43;;;;;;;;;;1753541;81;21396;-76
2021/04/23 01:58:03;;;;;;;16.50;11.85;;;;;;;;;;1773346;81;21179;-75
2021/04/23 02:00:40;;;;;;;19.25;11.68;;;;;;;;;;1764001;81;21324;-76
2021/04/23 02:03:11;;;;;;;15.78;11.48;;;;;;;;;;1754732;81;21847;-75
2021/04/23 02:05:43;;;;;;;13.55;10.40;;;;;;;;;;1775080;79;21285;-75
2021/04/23 02:08:15;;;;;;;18.90;11.80;;;;;;;;;;1799478;79;21183;-75
2021/04/23 02:10:55;;;;;;;16.02;10.70;;;;;;;;;;1802354;79;21722;-77
2021/04/23 02:13:27;;;;;;;14.87;10.08;;;;;;;;;;1773450;81;21697;-75
2021/04/23 02:15:58;;;;;;;15.60;11.38;;;;;;;;;;1781092;79;21159;-75
2021/04/23 02:18:29;;;;;;;16.37;9.85;;;;;;;;;;1800944;79;21182;-76
2021/04/23 02:21:00;;;;;;;15.25;10.00;;;;;;;;;;1808168;79;21740;-75
2021/04/23 02:23:30;;;;;;;;;;;;;;;;;;1799736;79;21190;-75
2021/04/23 02:26:01;;;;;;;17.55;11.40;;;;;;;;;;1783270;79;20523;-75
2021/04/23 02:28:33;;;;;;;14.58;10.68;;;;;;;;;;1801538;79;21354;-75
2021/04/23 02:31:13;;;;;;;14.70;10.53;;;;;;;;;;1798231;79;22396;-76
2021/04/23 02:33:45;;;;;;;16.35;11.45;;;;;;;;;;1795080;79;21325;-75
2021/04/23 02:36:16;;;;;;;16.02;10.78;;;;;;;;;;1785561;79;21185;-74
2021/04/23 02:38:47;;;;;;;15.30;10.55;;;;;;;;;;1784380;79;21167;-74
2021/04/23 02:41:19;;;;;;;14.10;10.53;;;;;;;;;;1796021;79;21297;-74
2021/04/23 02:43:52;;;;;;;17.15;11.05;;;;;;;;;;1795020;80;21210;-75
2021/04/23 02:46:24;;;;;;;14.93;10.93;;;;;;;;;;1794993;79;21694;-74
2021/04/23 02:48:55;;;;;;;15.13;10.48;;;;;;;;;;1793699;80;21143;-77
2021/04/23 02:51:29;;;;;;;15.65;10.93;;;;;;;;;;1785836;79;21159;-74
2021/04/23 02:54:00;;;;;;;19.42;11.43;;;;;;;;;;1799962;79;21234;-76
2021/04/23 02:56:32;;;;;;;10.32;7.45;;;;;;;;;;1802162;79;21163;-75
2021/04/23 02:59:06;;;;;;;10.70;6.45;;;;;;;;;;1799874;80;21289;-75
2021/04/23 03:01:42;;;;;;;9.10;5.55;;;;;;;;;;1797569;80;21285;-74
2021/04/23 03:04:13;;;;;;;8.15;4.62;;;;;;;;;;1798914;79;21836;-75
2021/04/23 03:06:44;;;;;;;8.90;5.20;;;;;;;;;;1802475;79;21192;-75
2021/04/23 03:09:14;;;;;;;10.32;4.90;;;;;;;;;;1800354;79;21167;-75
2021/04/23 03:11:46;;;;;;;6.92;4.60;;;;;;;;;;1802804;79;21674;-75
2021/04/23 03:14:19;;;;;;;7.20;4.97;;;;;;;;;;1804181;79;21348;-75
2021/04/23 03:16:50;;;;;;;6.55;4.53;;;;;;;;;;1803886;79;21666;-75
2021/04/23 03:19:22;;;;;;;7.80;4.70;;;;;;;;;;1801382;79;21234;-76
2021/04/23 03:21:53;;;;;;;7.80;4.28;;;;;;;;;;1805593;79;21395;-75
2021/04/23 03:24:24;;;;;;;6.87;4.62;;;;;;;;;;1809990;79;22067;-75
2021/04/23 03:26:54;;;;;;;;;;;;;;;;;;1804498;79;21192;-75
2021/04/23 03:29:25;;;;;;;8.30;4.53;;;;;;;;;;1800391;79;20213;-75
2021/04/23 03:31:56;;;;;;;8.18;4.47;;;;;;;;;;1801938;79;21686;-76
2021/04/23 03:34:27;;;;;;;7.28;4.45;;;;;;;;;;1805754;79;21183;-75
2021/04/23 03:36:57;;;;;;;9.30;5.55;;;;;;;;;;1801907;79;21230;-75
2021/04/23 03:39:28;;;;;;;8.48;4.92;;;;;;;;;;1800575;79;21190;-75
2021/04/23 03:42:00;;;;;;;7.00;4.67;;;;;;;;;;1804281;79;21391;-75
2021/04/23 03:44:31;;;;;;;8.58;5.67;;;;;;;;;;1807870;79;21159;-75
2021/04/23 03:47:01;;;;;;;;;;;;;;;;;;1813977;79;21190;-75
2021/04/23 03:49:33;;;;;;;9.60;4.90;;;;;;;;;;1813238;79;20260;-75
2021/04/23 03:52:04;;;;;;;;;;;;;;;;;;1754905;80;21349;-75
2021/04/23 03:54:34;;;;;;;8.15;5.05;;;;;;;;;;1737940;82;20290;-75
2021/04/23 03:57:06;;;;;;;7.10;5.25;;;;;;;;;;1742077;81;21257;-75
2021/04/23 03:59:37;;;;;;;7.80;4.28;;;;;;;;;;1747366;80;21214;-75
2021/04/23 04:02:07;;;;;;;;;;;;;;;;;;1746953;82;21175;-75
2021/04/23 04:04:39;;;;;;;10.38;5.10;;;;;;;;;;1713868;82;20240;-76
2021/04/23 04:07:10;;;;;;;6.90;3.98;;;;;;;;;;1803701;79;21170;-75
2021/04/23 04:09:41;;;;;;;8.48;4.10;;;;;;;;;;1780808;79;21145;-76
2021/04/23 04:12:13;;;;;;;7.17;3.85;;;;;;;;;;1801302;79;21316;-85
2021/04/23 04:14:44;;;;;;;6.10;3.85;;;;;;;;;;1800369;79;21317;-76
2021/04/23 04:17:15;;;;;;;7.28;4.15;;;;;;;;;;1794492;79;21730;-75
2021/04/23 04:19:47;;;;;;;9.18;3.90;;;;;;;;;;1804452;79;21199;-77
2021/04/23 04:22:18;;;;;;;7.58;4.08;;;;;;;;;;1776061;79;21171;-84
2021/04/23 04:24:49;;;;;;;6.12;4.00;;;;;;;;;;1784173;79;21765;-85
2021/04/23 04:27:20;;;;;;;6.05;3.77;;;;;;;;;;1701600;83;21349;-84
2021/04/23 04:29:51;;;;;;;7.37;3.67;;;;;;;;;;1787586;79;21199;-76
2021/04/23 04:32:21;;;;;;;6.65;3.85;;;;;;;;;;1788371;79;21864;-75
2021/04/23 04:34:52;;;;;;;;;;;;;;;;;;1783619;79;21175;-74
2021/04/23 04:37:23;;;;;;;7.10;4.60;;;;;;;;;;1776479;79;20265;-75
2021/04/23 04:39:54;;;;;;;6.53;3.83;;;;;;;;;;1777879;79;21749;-75
2021/04/23 04:42:25;;;;;;;5.87;3.62;;;;;;;;;;1775778;79;21976;-81
2021/04/23 04:45:01;;;;;;;8.95;3.90;;;;;;;;;;1775742;79;21859;-83
2021/04/23 04:47:30;;;;;;;6.30;3.65;;;;;;;;;;1776708;79;21411;-81
2021/04/23 04:50:02;;;;;;;7.20;4.60;;;;;;;;;;1778620;79;21199;-83
2021/04/23 04:52:33;;;;;;;4.95;3.62;;;;;;;;;;1775882;79;21229;-78
2021/04/23 04:55:07;;;;;;;6.12;3.92;;;;;;;;;;1776878;79;21206;-78
2021/04/23 04:57:38;;;;;;;8.93;4.03;;;;;;;;;;1774770;79;21218;-80
2021/04/23 05:00:10;;;;;;;6.87;3.55;;;;;;;;;;1781204;79;21171;-78
2021/04/23 05:02:41;;;;;;;5.72;3.55;;;;;;;;;;1776463;79;21464;-83
2021/04/23 05:05:13;;;;;;;7.00;4.20;;;;;;;;;;1779833;79;21198;-83
2021/04/23 05:07:44;;;;;;;6.72;4.75;;;;;;;;;;1783944;79;21254;-74
2021/04/23 05:10:15;;;;;;;10.08;7.65;;;;;;;;;;1787550;79;22258;-81
2021/04/23 05:12:46;;;;;;;16.93;9.05;;;;;;;;;;1773321;79;21285;-79
2021/04/23 05:15:17;;;;;;;;;;;;;;;;;;1778287;79;21182;-78
2021/04/23 05:17:48;;;;;;;19.20;11.50;;;;;;;;;;1778153;79;20246;-82
2021/04/23 05:20:20;;;;;;;19.57;12.25;;;;;;;;;;1781866;79;21222;-81
2021/04/23 05:22:51;;;;;;;15.38;10.20;;;;;;;;;;1779554;79;21166;-83
2021/04/23 05:25:23;;;;;;;9.95;6.95;;;;;;;;;;1774948;79;21214;-79
2021/04/23 05:27:54;;;;;;;9.25;5.53;;;;;;;;;;1775367;79;21218;-82
2021/04/23 05:30:28;;;;;;;7.55;4.15;;;;;;;;;;1775051;79;21431;-83
2021/04/23 05:33:01;;;;;;;6.40;3.92;;;;;;;;;;1774734;79;21210;-82
2021/04/23 05:35:32;;;;;;;7.10;4.33;;;;;;;;;;1775340;79;21764;-80
2021/04/23 05:38:03;;;;;;;;;;;;;;;;;;1780226;79;21266;-80
2021/04/23 05:40:42;;;;;;;10.32;6.50;;;;;;;;;;1774404;79;20319;-77
2021/04/23 05:43:14;;;;;;;16.42;9.15;;;;;;;;;;1779805;79;21183;-77
2021/04/23 05:45:45;;;;;;;;;;;;;;;;;;1765976;79;55924;-75
2021/04/23 05:48:16;;;;;;;12.10;7.45;;;;;;;;;;1774810;79;21001;-75
2021/04/23 05:50:49;;;;;;;9.15;7.00;;;;;;;;;;1777593;79;21120;-76
2021/04/23 05:53:20;;;;;;;12.80;7.85;;;;;;;;;;1775737;79;21296;-77
2021/04/23 05:55:50;;;;;;;;;;;;;;;;;;1780589;79;21240;-77
2021/04/23 05:58:21;;;;;;;14.43;9.43;;;;;;;;;;1775358;79;20288;-78
2021/04/23 06:00:52;;;;;;;;;;;;;;;;;;1778297;79;21720;-76
2021/04/23 06:03:22;;;;;;;12.82;7.12;;;;;;;;;;1775515;79;20239;-77
2021/04/23 06:05:53;;;;;;;;;;;;;;;;;;1779149;79;21693;-77
2021/04/23 06:08:24;;;;;;;12.20;7.30;;;;;;;;;;1783919;79;20191;-78
2021/04/23 06:10:55;;;;;;;8.95;5.95;;;;;;;;;;1789845;79;21344;-77
2021/04/23 06:13:27;;;;;;;13.88;6.12;;;;;;;;;;1785205;79;21676;-78
2021/04/23 06:15:58;;;;;;;9.55;6.12;;;;;;;;;;1785399;79;21844;-77
2021/04/23 06:18:28;;;;;;;;;;;;;;;;;;1793655;79;21171;-81
2021/04/23 06:21:00;;;;;;;12.40;7.00;;;;;;;;;;1795957;80;20540;-77
2021/04/23 06:23:31;;;;;;;14.03;8.60;;;;;;;;;;1795711;80;21199;-76
2021/04/23 06:26:02;;;;;;;14.05;9.85;;;;;;;;;;1795744;80;21152;-73
2021/04/23 06:28:34;;;;;;;15.85;9.08;;;;;;;;;;1795734;80;21278;-73
2021/04/23 06:31:06;;;;;;;13.65;8.23;;;;;;;;;;1795908;80;21163;-72
2021/04/23 06:33:40;;;;;;;15.93;8.35;;;;;;;;;;1767516;80;21340;-73
2021/04/23 06:36:11;;;;;;;16.10;9.40;;;;;;;;;;1795697;80;21817;-73
2021/04/23 06:38:44;;;;;;;14.90;9.50;;;;;;;;;;1795805;80;21297;-73
2021/04/23 06:41:15;;;;;;;16.55;8.83;;;;;;;;;;1795686;80;21147;-73
2021/04/23 06:43:47;;;;;;;14.47;8.78;;;;;;;;;;1795997;80;21152;-76
2021/04/23 06:46:18;;;;;;;9.85;6.40;;;;;;;;;;1795889;80;21408;-77
2021/04/23 06:48:50;;;;;;;7.30;5.08;;;;;;;;;;1767268;80;21142;-74
2021/04/23 06:51:20;;;;;;;;;;;;;;;;;;1798351;80;21675;-72
2021/04/23 06:53:51;;;;;;;10.38;5.17;;;;;;;;;;1796101;80;20532;-75
2021/04/23 06:56:22;;;;;;;10.25;6.47;;;;;;;;;;1795977;80;21352;-84
2021/04/23 06:58:54;;;;;;;8.43;4.87;;;;;;;;;;1795895;80;21163;-77
2021/04/23 07:01:25;;;;;;;25.40;6.55;;;;;;;;;;1795819;80;21316;-79
2021/04/23 07:03:57;;;;;;;12.88;4.03;;;;;;;;;;1795718;80;21298;-78
2021/04/23 07:06:30;;;;;;;9.23;5.30;;;;;;;;;;1795515;80;21659;-90
2021/04/23 07:09:01;;;;;;;8.83;4.87;;;;;;;;;;1793477;80;21344;-91
2021/04/23 07:11:33;;;;;;;8.55;4.85;;;;;;;;;;1793562;80;21313;-83
2021/04/23 07:14:05;;;;;;;5.45;3.27;;;;;;;;;;1793594;80;21207;-78
2021/04/23 07:16:37;;;;;;;5.97;3.67;;;;;;;;;;1793570;80;21135;-87
2021/04/23 07:19:09;;;;;;;4.65;3.08;;;;;;;;;;1793915;80;21325;-90
2021/04/23 07:21:40;;;;;;;4.50;3.00;;;;;;;;;;1793544;80;21167;-82
2021/04/23 07:24:11;;;;;;;5.15;3.33;;;;;;;;;;1793553;80;21151;-82
2021/04/23 07:26:42;;;;;;;;;;;;;;;;;;1796191;80;21722;-80
2021/04/23 07:29:13;;;;;;;7.50;3.00;;;;;;;;;;1793701;80;20257;-80
2021/04/23 07:31:45;;;;;;;6.58;2.92;;;;;;;;;;1793755;80;21837;-75
2021/04/23 07:34:18;;;;;;;5.00;2.80;;;;;;;;;;1793574;80;21293;-85
2021/04/23 07:36:49;;;;;;;5.67;3.08;;;;;;;;;;1793563;80;21151;-89
2021/04/23 07:39:26;;;;;;;8.25;3.10;;;;;;;;;;1793560;80;21297;-86
2021/04/23 07:41:55;;;;;;;6.33;3.72;;;;;;;;;;1793517;80;21156;-86
2021/04/23 07:44:28;;;;;;;6.72;3.20;;;;;;;;;;1793542;80;21159;-85
2021/04/23 07:47:00;;;;;;;6.22;2.98;;;;;;;;;;1793540;80;21345;-89
2021/04/23 07:49:31;;;;;;;5.40;2.98;;;;;;;;;;1793576;80;21283;-87
2021/04/23 07:52:04;;;;;;;4.92;3.05;;;;;;;;;;1793554;80;21306;-83
2021/04/23 07:54:39;;;;;;;6.78;3.50;;;;;;;;;;1793756;80;21171;-75
2021/04/23 07:57:11;;;;;;;8.88;4.25;;;;;;;;;;1793623;80;21159;-74
2021/04/23 07:59:42;;;;;;;9.48;3.72;;;;;;;;;;1793754;80;21313;-78
2021/04/23 08:02:14;;;;;;;6.55;3.20;;;;;;;;;;1793611;80;21406;-79
2021/04/23 08:04:45;;;;;;;;;;;;;;;;;;1770410;80;21167;-81
2021/04/23 08:07:17;;;;;;;3.77;3.22;;;;;;;;;;1792039;80;20257;-82
2021/04/23 08:09:48;;;;;;;6.17;3.15;;;;;;;;;;1776598;81;21170;-82
2021/04/23 08:12:20;;;;;;;5.45;2.80;;;;;;;;;;1776982;81;21289;-82
2021/04/23 08:14:53;;;;;;;6.67;3.37;;;;;;;;;;1776863;81;21351;-80
2021/04/23 08:17:25;;;;;;;4.85;3.30;;;;;;;;;;1776890;81;21321;-82
2021/04/23 08:19:55;;;;;;;8.10;3.42;;;;;;;;;;1776861;81;21815;-85
2021/04/23 08:22:26;;;;;;;5.28;3.33;;;;;;;;;;1776730;81;21353;-70
2021/04/23 08:24:59;;;;;;;3.83;3.10;;;;;;;;;;1776903;81;21297;-74
2021/04/23 08:27:30;;;;;;;6.45;3.20;;;;;;;;;;1776867;81;21781;-76
2021/04/23 08:30:05;;;;;;;7.50;3.17;;;;;;;;;;1776891;81;21324;-79
2021/04/23 08:32:37;;;;;;;7.42;3.70;;;;;;;;;;1776565;81;21316;-77
2021/04/23 08:35:10;;;;;;;5.40;4.40;;;;;;;;;;1776862;81;21158;-78
2021/04/23 08:37:42;;;;;;;8.33;4.60;;;;;;;;;;1776890;81;21147;-77
2021/04/23 08:40:16;;;;;;;7.03;3.40;;;;;;;;;;1776688;81;21305;-79
2021/04/23 08:42:51;;;;;;;6.22;3.55;;;;;;;;;;1776681;81;21178;-83
2021/04/23 08:45:23;;;;;;;6.00;3.65;;;;;;;;;;1776744;81;21785;-80
2021/04/23 08:47:55;;;;;;;5.83;3.67;;;;;;;;;;1776735;81;21289;-72
2021/04/23 08:50:28;;;;;;;8.25;3.90;;;;;;;;;;1776703;81;21297;-75
2021/04/23 08:53:00;;;;;;;8.63;4.12;;;;;;;;;;1776673;81;21206;-73
2021/04/23 08:55:32;;;;;;;6.55;4.03;;;;;;;;;;1776812;81;21147;-74
2021/04/23 08:58:05;;;;;;;6.70;3.70;;;;;;;;;;1775738;80;21222;-70
2021/04/23 09:00:37;;;;;;;8.73;4.65;;;;;;;;;;1776715;81;21202;-72
2021/04/23 09:03:11;;;;;;;5.78;3.70;;;;;;;;;;1755581;81;21297;-71
2021/04/23 09:05:42;;;;;;;7.72;3.92;;;;;;;;;;1776687;81;21686;-75
2021/04/23 09:08:14;;;;;;;7.03;4.05;;;;;;;;;;1777299;80;21154;-73
2021/04/23 09:10:45;;;;;;;8.75;4.53;;;;;;;;;;1777490;79;21210;-76
2021/04/23 09:13:17;;;;;;;7.72;5.08;;;;;;;;;;1755769;80;21305;-73
2021/04/23 09:15:50;;;;;;;7.05;4.17;;;;;;;;;;1776458;81;21167;-75
2021/04/23 09:18:25;;;;;;;;;;;;;;;;;;1758264;81;21662;-73
2021/04/23 09:21:03;;;;;;;7.45;4.30;;;;;;;;;;1776649;81;20264;-76
2021/04/23 09:23:34;;;;;;;8.08;4.37;;;;;;;;;;1776795;81;21163;-73
2021/04/23 09:26:06;;;;;;;10.28;4.83;;;;;;;;;;1755572;81;21682;-71
2021/04/23 09:28:40;;;;;;;;;;;;;;;;;;1780009;81;21344;-71
2021/04/23 09:31:37;;;;;;;7.12;3.85;;;;;;;;;;1777133;81;20179;-72
2021/04/23 09:34:06;;;;;;;7.97;4.50;;;;;;;;;;1777458;80;21150;-71
2021/04/23 09:36:45;;;;;;;12.78;4.92;;;;;;;;;;1778630;81;21847;-72
2021/04/23 09:39:23;;;;;;;5.83;3.75;;;;;;;;;;1777210;81;21210;-70
2021/04/23 09:42:06;;;;;;;9.23;4.53;;;;;;;;;;1776665;81;21194;-71
2021/04/23 09:44:50;;;;;;;8.48;4.28;;;;;;;;;;1776644;81;21163;-71
2021/04/23 09:47:22;;;;;;;8.50;3.70;;;;;;;;;;1776664;81;21143;-73
2021/04/23 09:49:54;;;;;;;8.03;3.47;;;;;;;;;;1776639;81;21147;-72
2021/04/23 09:52:26;;;;;;;7.10;3.72;;;;;;;;;;1776875;81;21288;-72
2021/04/23 09:54:58;;;;;;;4.45;3.20;;;;;;;;;;1776686;81;21281;-72
2021/04/23 09:57:37;;;;;;;5.12;3.25;;;;;;;;;;1776692;81;21289;-71
2021/04/23 10:00:08;;;;;;;8.15;3.50;;;;;;;;;;1776647;81;21139;-71
2021/04/23 10:02:40;;;;;;;4.85;3.30;;;;;;;;;;1776656;81;21293;-71
2021/04/23 10:05:12;;;;;;;6.65;3.08;;;;;;;;;;1776590;81;21170;-70
2021/04/23 10:07:43;;;;;;;4.70;3.42;;;;;;;;;;1776545;81;21321;-70
2021/04/23 10:10:15;;;;;;;5.08;3.40;;;;;;;;;;1776851;81;21773;-74
2021/04/23 10:12:53;;;;;;;7.33;3.55;;;;;;;;;;1781929;80;21167;-71
2021/04/23 10:15:26;;;;;;;7.62;3.08;;;;;;;;;;1793517;80;21139;-72
2021/04/23 10:17:59;;;;;;;4.85;2.98;;;;;;;;;;1793541;80;21176;-72
2021/04/23 10:20:33;;;;;;;7.85;3.20;;;;;;;;;;1793499;80;21144;-73
2021/04/23 10:23:06;;;;;;;5.55;3.37;;;;;;;;;;1793510;80;21199;-70
2021/04/23 10:25:37;;;;;;;10.05;3.58;;;;;;;;;;1793484;80;21321;-72
2021/04/23 10:28:10;;;;;;;6.37;3.17;;;;;;;;;;1793706;80;21143;-71
2021/04/23 10:30:44;;;;;;;4.83;2.35;;;;;;;;;;1793498;80;21286;-70
2021/04/23 10:33:17;;;;;;;5.47;2.80;;;;;;;;;;1793491;80;21282;-70
2021/04/23 10:35:51;;;;;;;5.92;2.70;;;;;;;;;;1793514;80;21144;-71
2021/04/23 10:38:34;;;;;;;6.83;3.15;;;;;;;;;;1793441;80;21663;-73
2021/04/23 10:41:07;;;;;;;4.17;2.65;;;;;;;;;;1793481;80;21139;-71
2021/04/23 10:43:39;;;;;;;5.67;2.50;;;;;;;;;;1793496;80;21128;-72
2021/04/23 10:46:15;;;;;;;8.28;2.80;;;;;;;;;;1792401;80;21364;-70
2021/04/23 10:48:47;;;;;;;3.70;2.40;;;;;;;;;;1793466;80;21254;-70
2021/04/23 10:51:23;;;;;;;7.33;2.70;;;;;;;;;;1793699;80;21282;-70
2021/04/23 10:53:55;;;;;;;4.97;2.58;;;;;;;;;;1793483;80;21195;-71
2021/04/23 10:56:33;;;;;;;4.83;2.50;;;;;;;;;;1793482;80;21274;-72
2021/04/23 10:59:09;;;;;;;6.80;2.30;;;;;;;;;;1793494;80;21655;-71
2021/04/23 11:01:40;;;;;;;5.08;2.55;;;;;;;;;;1767333;80;21152;-71
2021/04/23 11:04:17;;;;;;;3.72;2.50;;;;;;;;;;1767214;80;21190;-71
2021/04/23 11:06:56;;;;;;;4.90;2.42;;;;;;;;;;1793512;80;21268;-71
2021/04/23 11:09:26;;;;;;;4.22;2.45;;;;;;;;;;1791078;80;21669;-71
2021/04/23 11:12:12;;;;;;;3.75;2.17;;;;;;;;;;1793487;80;21175;-71
2021/04/23 11:14:44;;;;;;;3.77;2.35;;;;;;;;;;1793472;80;21671;-69
2021/04/23 11:17:21;;;;;;;3.62;2.10;;;;;;;;;;1793642;80;21333;-69
2021/04/23 11:19:53;;;;;;;3.83;2.27;;;;;;;;;;1793441;80;21651;-69
2021/04/23 11:22:26;;;;;;;6.05;2.10;;;;;;;;;;1793576;80;21285;-69
2021/04/23 11:25:06;;;;;;;3.22;2.12;;;;;;;;;;1793537;80;21774;-70
2021/04/23 11:27:40;;;;;;;8.73;2.50;;;;;;;;;;1793737;80;21171;-72
2021/04/23 11:30:12;;;;;;;6.55;2.42;;;;;;;;;;1789950;80;21990;-71
2021/04/23 11:32:54;;;;;;;6.72;2.25;;;;;;;;;;1793565;80;21325;-71
2021/04/23 11:35:26;;;;;;;5.20;2.30;;;;;;;;;;1793479;80;21156;-71
2021/04/23 11:37:58;;;;;;;7.58;2.22;;;;;;;;;;1793384;80;21152;-71
2021/04/23 11:40:29;;;;;;;3.67;2.22;;;;;;;;;;1793439;80;21143;-71
2021/04/23 11:43:05;;;;;;;3.77;2.12;;;;;;;;;;1793656;80;21286;-71
2021/04/23 11:45:37;;;;;;;6.40;2.52;;;;;;;;;;1793510;80;21309;-71
2021/04/23 11:48:09;;;;;;;3.90;1.82;;;;;;;;;;1793414;80;21143;-71
2021/04/23 11:50:45;;;;;;;8.20;2.20;;;;;;;;;;1792282;80;21301;-71
2021/04/23 11:53:19;;;;;;;3.33;2.08;;;;;;;;;;1793535;80;21269;-69
2021/04/23 11:55:51;;;;;;;7.03;2.40;;;;;;;;;;1793774;80;21371;-68
2021/04/23 11:58:23;;;;;;;5.62;2.17;;;;;;;;;;1793452;80;21151;-70
2021/04/23 12:00:56;;;;;;;4.90;1.95;;;;;;;;;;1793658;80;21644;-69
2021/04/23 12:03:27;;;;;;;2.92;1.77;;;;;;;;;;1793503;80;21123;-67
2021/04/23 12:06:00;;;;;;;3.02;2.10;;;;;;;;;;1793468;80;21325;-69
2021/04/23 12:08:33;;;;;;;;;;;;;;;;;;1796108;80;21171;-68
2021/04/23 12:11:05;;;;;;;3.77;2.15;;;;;;;;;;1793520;80;20166;-68
2021/04/23 12:13:39;;;;;;;7.85;2.55;;;;;;;;;;1793670;80;21285;-69
2021/04/23 12:16:14;;;;;;;3.55;2.40;;;;;;;;;;1752434;82;21355;-69
2021/04/23 12:18:47;;;;;;;5.35;2.15;;;;;;;;;;1751919;82;21161;-71
2021/04/23 12:21:21;;;;;;;4.12;2.30;;;;;;;;;;1751720;82;21216;-69
2021/04/23 12:23:55;;;;;;;4.33;1.92;;;;;;;;;;1751504;82;21362;-72
2021/04/23 12:26:27;;;;;;;5.08;1.80;;;;;;;;;;1751826;82;21362;-71
2021/04/23 12:29:02;;;;;;;3.45;1.72;;;;;;;;;;1751579;82;21838;-75
2021/04/23 12:31:36;;;;;;;3.40;2.27;;;;;;;;;;1751884;82;21400;-75
2021/04/23 12:34:14;;;;;;;3.77;2.40;;;;;;;;;;1752703;82;21184;-76
2021/04/23 12:36:48;;;;;;;2.98;1.85;;;;;;;;;;1752101;82;21350;-76
2021/04/23 12:39:27;;;;;;;4.35;2.35;;;;;;;;;;1752402;82;21401;-78
2021/04/23 12:42:03;;;;;;;2.52;1.92;;;;;;;;;;1752591;82;21448;-75
2021/04/23 12:44:37;;;;;;;2.95;1.80;;;;;;;;;;1752352;82;21166;-73
2021/04/23 12:47:13;;;;;;;3.25;1.90;;;;;;;;;;1751966;82;21222;-73
2021/04/23 12:49:46;;;;;;;5.47;2.52;;;;;;;;;;1752204;82;21384;-75
2021/04/23 12:52:20;;;;;;;4.62;2.10;;;;;;;;;;1752297;82;21452;-72
2021/04/23 12:58:24;;;;;;;4.17;2.02;;;;;;;;;;1751690;82;21136;-74
2021/04/23 13:01:04;;;;;;;5.25;2.17;;;;;;;;;;1751550;82;21351;-73
2021/04/23 13:03:36;;;;;;;5.78;2.67;;;;;;;;;;1751283;82;21704;-72
2021/04/23 13:06:08;;;;;;;4.17;2.10;;;;;;;;;;1751517;82;21915;-73
2021/04/23 13:08:41;;;;;;;2.98;2.05;;;;;;;;;;1751161;82;21311;-73
2021/04/23 13:11:17;;;;;;;2.85;1.90;;;;;;;;;;1751195;82;21161;-73
2021/04/23 13:13:49;;;;;;;7.30;2.55;;;;;;;;;;1723347;82;21711;-72
2021/04/23 13:16:21;;;;;;;4.10;2.80;;;;;;;;;;1782062;80;21167;-71
2021/04/23 13:26:25;;;;;;;5.00;2.35;;;;;;;41.92;19.03;162262.84;1837673;76;22887;-73
2021/04/23 13:29:05;;;;;;;5.62;2.42;;;;;;;41.74;19.15;162213.16;1814818;77;21211;-72
2021/04/23 13:31:38;;;;;;;5.30;2.75;;;;;;;41.90;18.67;162257.47;1815271;77;21260;-76
2021/04/23 13:34:12;;;;;;;5.30;2.70;;;;;;;41.71;18.42;162206.45;1810872;77;21402;-73
2021/04/23 13:36:52;;;;;;;7.53;2.22;;;;;;;41.63;18.41;162183.63;1792367;78;21771;-75
2021/04/23 13:39:24;;;;;;;3.83;2.00;;;;;;;41.49;18.36;162147.33;1805979;77;21425;-75
2021/04/23 13:41:57;;;;;;;5.22;3.00;;;;;;;41.30;18.29;162096.28;1750798;80;21431;-74
2021/04/23 13:44:32;;;;;;;3.42;2.05;;;;;;;41.22;18.38;162073.45;1755335;80;21327;-73
2021/04/23 13:47:09;;;;;;;2.90;1.80;;;;;;;41.32;18.46;162101.66;1735121;80;21376;-73
2021/04/23 13:49:42;;;;;;;4.83;2.30;;;;;;;41.49;18.26;162145.97;1741820;80;21402;-70
2021/04/23 13:52:18;;;;;;;4.65;2.10;;;;;;;41.50;17.95;162149.97;1775658;78;21477;-72
2021/04/23 13:54:50;;;;;;;5.03;2.10;;;;;;;41.31;18.08;162097.66;1758782;79;21364;-73
2021/04/23 13:57:23;;;;;;;7.10;2.00;;;;;;;41.26;18.21;162085.53;1761349;80;21256;-71
2021/04/23 13:59:56;;;;;;;4.05;1.77;;;;;;;41.17;17.90;162060.06;1745481;80;21774;-79
2021/04/23 14:02:28;;;;;;;2.55;1.75;;;;;;;41.28;18.23;162090.91;1756376;80;21273;-73
2021/04/23 14:05:02;;;;;;;3.58;2.00;;;;;;;41.07;18.19;162033.17;1751134;80;21277;-76
2021/04/23 14:07:36;;;;;;;6.40;1.92;;;;;;;40.97;18.45;162007.64;1731681;80;21782;-72
2021/04/23 14:10:08;;;;;;;2.27;1.70;;;;;;;40.83;18.67;161968.73;1761390;80;21336;-69
2021/04/23 14:12:41;;;;;;;3.87;1.87;;;;;;;40.86;18.49;161975.44;1761099;80;21346;-72
2021/04/23 14:15:14;;;;;;;5.70;2.85;;;;;;;40.77;18.27;161951.28;1746305;80;21266;-71
2021/04/23 14:17:46;;;;;;;5.50;1.80;;;;;;;40.63;18.32;161913.66;1753864;80;21256;-76
2021/04/23 14:20:18;;;;;;;4.30;1.70;;;;;;;41.04;18.20;162026.42;1723205;81;21478;-71
2021/04/23 14:22:51;;;;;;;17.02;6.87;;;;;;;40.57;18.53;161897.58;1721909;81;21278;-75
2021/04/23 14:25:24;;;;;;;10.88;3.33;;;;;;;40.34;18.50;161837.17;1714197;81;21802;-76
2021/04/23 14:27:56;;;;;;;8.20;2.90;;;;;;;40.42;18.80;161857.31;1726515;81;21265;-72
2021/04/23 14:30:29;;;;;;;5.30;2.50;;;;;;;40.44;18.39;161864.00;1723479;81;21267;-74
2021/04/23 14:33:01;;;;;;;12.07;5.12;;;;;;;40.00;18.49;161744.53;1717829;81;21298;-77
2021/04/23 14:35:33;;;;;;;6.05;2.05;;;;;;;39.82;18.46;161696.22;1722438;81;21293;-73
2021/04/23 14:38:06;;;;;;;3.20;1.82;;;;;;;39.73;18.84;161672.09;1731402;81;21431;-72
2021/04/23 14:40:38;;;;;;;7.85;3.20;;;;;;;39.92;18.80;161723.09;1723848;81;21356;-71
2021/04/23 14:43:11;;;;;;;5.33;2.60;;;;;;;39.70;18.66;161664.03;1723225;81;21502;-70
2021/04/23 14:45:43;;;;;;;9.05;2.80;;;;;;;39.52;18.79;161615.78;1727238;81;22671;-71
2021/04/23 14:48:16;;;;;;;8.35;2.45;;;;;;;39.29;18.59;161552.69;1736184;81;21438;-70
2021/04/23 14:50:50;;;;;;;6.83;2.45;;;;;;;39.11;18.77;161504.44;1724522;81;21304;-71
2021/04/23 14:53:22;;;;;;;11.85;4.37;;;;;;;39.13;18.65;161509.77;1726201;81;21458;-70
2021/04/23 14:55:55;;;;;;;5.55;1.82;;;;;;;38.94;18.33;161458.78;1719317;81;21303;-74
2021/04/23 14:58:29;;;;;;;9.98;2.85;;;;;;;39.02;18.36;161480.22;1732097;81;21387;-70
2021/04/23 15:01:02;;;;;;;8.23;1.95;;;;;;;39.08;18.54;161497.70;1724652;81;21447;-71